XBRLQ MMCU-XAMT
Flight info
| Callsign | XBRLQ |
|---|---|
| Flight time | N/A |
| Altitude | 8500 |
| Route | DCT XAMT |
| Aircraft | C172/L-S/C |
Departure
| Time | 2026-04-27 00:50 |
|---|---|
| Airport | General Roberto Fierro Villalobos International Airport (MMCU) |
Arrival
| Time | N/A |
|---|---|
| Airport | XAMT |
| Time | Latitude | Longitude | Altitude | Speed | Heading |
|---|---|---|---|---|---|
| 2026-04-27 00:41 | 28.70196 | -105.96881 | 4441 ft | 0 kts | 12° |
| 2026-04-27 00:46 | 28.70212 | -105.96874 | 4441 ft | 10 kts | 31° |
| 2026-04-27 00:46 | 28.70250 | -105.96758 | 4439 ft | 20 kts | 65° |
| 2026-04-27 00:47 | 28.70289 | -105.96604 | 4437 ft | 25 kts | 79° |
| 2026-04-27 00:47 | 28.70445 | -105.96531 | 4434 ft | 28 kts | 25° |
| 2026-04-27 00:47 | 28.70609 | -105.96387 | 4429 ft | 32 kts | 43° |
| 2026-04-27 00:47 | 28.70800 | -105.96245 | 4427 ft | 34 kts | 10° |
| 2026-04-27 00:48 | 28.71046 | -105.96191 | 4420 ft | 38 kts | 12° |
| 2026-04-27 00:48 | 28.71317 | -105.96132 | 4412 ft | 36 kts | 9° |
| 2026-04-27 00:48 | 28.71425 | -105.96146 | 4408 ft | 17 kts | 172° |
| 2026-04-27 00:48 | 28.71173 | -105.96163 | 4417 ft | 56 kts | 191° |
| 2026-04-27 00:49 | 28.70692 | -105.96266 | 4452 ft | 82 kts | 190° |
| 2026-04-27 00:49 | 28.70081 | -105.96398 | 4528 ft | 95 kts | 192° |
| 2026-04-27 00:49 | 28.69427 | -105.96516 | 4700 ft | 94 kts | 189° |
| 2026-04-27 00:49 | 28.68768 | -105.96608 | 4848 ft | 96 kts | 188° |
| 2026-04-27 00:50 | 28.68327 | -105.96643 | 4987 ft | 94 kts | 187° |
| 2026-04-27 00:50 | 28.67724 | -105.97855 | 5333 ft | 99 kts | 278° |
| 2026-04-27 00:50 | 28.67802 | -105.98388 | 5416 ft | 102 kts | 278° |
| 2026-04-27 00:51 | 28.67888 | -105.99220 | 5519 ft | 108 kts | 274° |
| 2026-04-27 00:51 | 28.67925 | -106.00063 | 5640 ft | 107 kts | 272° |
| 2026-04-27 00:51 | 28.67960 | -106.00916 | 5758 ft | 107 kts | 272° |
| 2026-04-27 00:51 | 28.67996 | -106.01738 | 5876 ft | 102 kts | 272° |
| 2026-04-27 00:52 | 28.68033 | -106.02535 | 5996 ft | 100 kts | 273° |
| 2026-04-27 00:52 | 28.68072 | -106.03309 | 6103 ft | 98 kts | 273° |
| 2026-04-27 00:52 | 28.68109 | -106.04067 | 6228 ft | 94 kts | 273° |
| 2026-04-27 00:52 | 28.68142 | -106.04796 | 6345 ft | 91 kts | 272° |
| 2026-04-27 00:53 | 28.68173 | -106.05509 | 6456 ft | 89 kts | 272° |
| 2026-04-27 00:53 | 28.68204 | -106.06214 | 6594 ft | 91 kts | 272° |
| 2026-04-27 00:53 | 28.68238 | -106.06948 | 6720 ft | 94 kts | 273° |
| 2026-04-27 00:53 | 28.68272 | -106.07689 | 6849 ft | 96 kts | 273° |
| 2026-04-27 00:54 | 28.68309 | -106.08464 | 6975 ft | 99 kts | 273° |
| 2026-04-27 00:54 | 28.68347 | -106.09238 | 7102 ft | 97 kts | 274° |
| 2026-04-27 00:54 | 28.68387 | -106.09990 | 7225 ft | 93 kts | 273° |
| 2026-04-27 00:54 | 28.68484 | -106.10710 | 7311 ft | 95 kts | 297° |
| 2026-04-27 00:55 | 28.69005 | -106.11227 | 7389 ft | 98 kts | 322° |
| 2026-04-27 00:55 | 28.69537 | -106.11660 | 7538 ft | 98 kts | 322° |
| 2026-04-27 00:55 | 28.70027 | -106.12190 | 7615 ft | 98 kts | 296° |
| 2026-04-27 00:55 | 28.70123 | -106.12957 | 7683 ft | 98 kts | 272° |
| 2026-04-27 00:56 | 28.70144 | -106.13718 | 7804 ft | 95 kts | 271° |
| 2026-04-27 00:56 | 28.70163 | -106.14463 | 7927 ft | 94 kts | 271° |
| 2026-04-27 00:56 | 28.70183 | -106.15177 | 8043 ft | 88 kts | 271° |
| 2026-04-27 00:56 | 28.70205 | -106.15862 | 8162 ft | 85 kts | 272° |
| 2026-04-27 00:57 | 28.70227 | -106.16541 | 8282 ft | 85 kts | 272° |
| 2026-04-27 00:57 | 28.70250 | -106.17212 | 8405 ft | 84 kts | 272° |
| 2026-04-27 00:57 | 28.70273 | -106.17883 | 8497 ft | 91 kts | 271° |
| 2026-04-27 00:57 | 28.70292 | -106.18646 | 8507 ft | 100 kts | 271° |
| 2026-04-27 00:58 | 28.70308 | -106.19466 | 8510 ft | 106 kts | 271° |
| 2026-04-27 00:58 | 28.70326 | -106.20327 | 8511 ft | 112 kts | 271° |
| 2026-04-27 00:58 | 28.70346 | -106.21228 | 8509 ft | 115 kts | 271° |
| 2026-04-27 00:58 | 28.70367 | -106.22136 | 8509 ft | 114 kts | 271° |
| 2026-04-27 00:59 | 28.70386 | -106.23046 | 8508 ft | 115 kts | 271° |
| 2026-04-27 00:59 | 28.70407 | -106.23959 | 8510 ft | 115 kts | 271° |
| 2026-04-27 00:59 | 28.70427 | -106.24878 | 8505 ft | 115 kts | 271° |
| 2026-04-27 00:59 | 28.70447 | -106.25773 | 8504 ft | 114 kts | 271° |
| 2026-04-27 01:00 | 28.70468 | -106.26682 | 8503 ft | 115 kts | 271° |
| 2026-04-27 01:00 | 28.70489 | -106.27585 | 8503 ft | 113 kts | 271° |
| 2026-04-27 01:00 | 28.70508 | -106.28486 | 8508 ft | 115 kts | 271° |
| 2026-04-27 01:00 | 28.70447 | -106.29401 | 8503 ft | 115 kts | 265° |
| 2026-04-27 01:01 | 28.70370 | -106.30289 | 8503 ft | 113 kts | 263° |
| 2026-04-27 01:01 | 28.70265 | -106.31175 | 8513 ft | 114 kts | 262° |
| 2026-04-27 01:01 | 28.70156 | -106.32082 | 8509 ft | 116 kts | 263° |
| 2026-04-27 01:01 | 28.70052 | -106.32991 | 8507 ft | 115 kts | 263° |
| 2026-04-27 01:02 | 28.69944 | -106.33891 | 8509 ft | 117 kts | 263° |
| 2026-04-27 01:02 | 28.69838 | -106.34815 | 8509 ft | 118 kts | 263° |
| 2026-04-27 01:02 | 28.69729 | -106.35750 | 8510 ft | 119 kts | 263° |
| 2026-04-27 01:02 | 28.69620 | -106.36687 | 8502 ft | 118 kts | 263° |
| 2026-04-27 01:03 | 28.69515 | -106.37607 | 8505 ft | 120 kts | 263° |
| 2026-04-27 01:03 | 28.69404 | -106.38554 | 8509 ft | 121 kts | 263° |
| 2026-04-27 01:03 | 28.69292 | -106.39511 | 8506 ft | 122 kts | 263° |
| 2026-04-27 01:03 | 28.69183 | -106.40464 | 8504 ft | 121 kts | 264° |
| 2026-04-27 01:04 | 28.69075 | -106.41401 | 8495 ft | 116 kts | 263° |
| 2026-04-27 01:04 | 28.68969 | -106.42301 | 8498 ft | 116 kts | 263° |
| 2026-04-27 01:04 | 28.68860 | -106.43217 | 8498 ft | 117 kts | 263° |
| 2026-04-27 01:04 | 28.68751 | -106.44145 | 8498 ft | 118 kts | 262° |
| 2026-04-27 01:05 | 28.68639 | -106.45061 | 8495 ft | 116 kts | 262° |
| 2026-04-27 01:05 | 28.68529 | -106.45959 | 8496 ft | 116 kts | 262° |
| 2026-04-27 01:05 | 28.68419 | -106.46870 | 8490 ft | 116 kts | 262° |
| 2026-04-27 01:05 | 28.68309 | -106.47771 | 8491 ft | 114 kts | 262° |
| 2026-04-27 01:06 | 28.68199 | -106.48673 | 8491 ft | 114 kts | 262° |
| 2026-04-27 01:06 | 28.68091 | -106.49567 | 8496 ft | 116 kts | 263° |
| 2026-04-27 01:06 | 28.67984 | -106.50481 | 8493 ft | 116 kts | 263° |
| 2026-04-27 01:06 | 28.67883 | -106.51382 | 8495 ft | 114 kts | 263° |
| 2026-04-27 01:07 | 28.67781 | -106.52270 | 8495 ft | 113 kts | 263° |
| 2026-04-27 01:07 | 28.67677 | -106.53160 | 8494 ft | 116 kts | 263° |
| 2026-04-27 01:07 | 28.67569 | -106.54068 | 8492 ft | 115 kts | 263° |
| 2026-04-27 01:07 | 28.67461 | -106.54971 | 8496 ft | 115 kts | 263° |
| 2026-04-27 01:08 | 28.67351 | -106.55869 | 8496 ft | 114 kts | 262° |
| 2026-04-27 01:08 | 28.67244 | -106.56769 | 8498 ft | 116 kts | 263° |
| 2026-04-27 01:08 | 28.67135 | -106.57682 | 8497 ft | 117 kts | 263° |
| 2026-04-27 01:08 | 28.67023 | -106.58603 | 8498 ft | 117 kts | 262° |
| 2026-04-27 01:09 | 28.66912 | -106.59515 | 8496 ft | 115 kts | 263° |
| 2026-04-27 01:09 | 28.66805 | -106.60411 | 8498 ft | 115 kts | 262° |
| 2026-04-27 01:09 | 28.66693 | -106.61315 | 8499 ft | 116 kts | 262° |
| 2026-04-27 01:09 | 28.66582 | -106.62233 | 8501 ft | 118 kts | 262° |
| 2026-04-27 01:10 | 28.66466 | -106.63170 | 8504 ft | 120 kts | 262° |
| 2026-04-27 01:10 | 28.66351 | -106.64102 | 8505 ft | 120 kts | 262° |
| 2026-04-27 01:10 | 28.66236 | -106.65042 | 8502 ft | 119 kts | 263° |
| 2026-04-27 01:10 | 28.66142 | -106.65967 | 8497 ft | 115 kts | 264° |
| 2026-04-27 01:11 | 28.66058 | -106.66870 | 8498 ft | 114 kts | 264° |
| 2026-04-27 01:11 | 28.65975 | -106.67760 | 8527 ft | 111 kts | 263° |
| 2026-04-27 01:11 | 28.65881 | -106.68616 | 8624 ft | 107 kts | 263° |
| 2026-04-27 01:11 | 28.65783 | -106.69446 | 8720 ft | 105 kts | 262° |
| 2026-04-27 01:12 | 28.65684 | -106.70257 | 8814 ft | 103 kts | 263° |
| 2026-04-27 01:12 | 28.65586 | -106.71067 | 8913 ft | 104 kts | 262° |
| 2026-04-27 01:12 | 28.65478 | -106.71857 | 9011 ft | 98 kts | 262° |
| 2026-04-27 01:12 | 28.65377 | -106.72637 | 9092 ft | 102 kts | 262° |
| 2026-04-27 01:13 | 28.65269 | -106.73466 | 9100 ft | 109 kts | 261° |
| 2026-04-27 01:13 | 28.65161 | -106.74327 | 9101 ft | 114 kts | 263° |
| 2026-04-27 01:13 | 28.65052 | -106.75235 | 9109 ft | 116 kts | 262° |
| 2026-04-27 01:13 | 28.64940 | -106.76165 | 9107 ft | 121 kts | 263° |
| 2026-04-27 01:14 | 28.64829 | -106.77121 | 9097 ft | 123 kts | 262° |
| 2026-04-27 01:14 | 28.64709 | -106.78118 | 8979 ft | 129 kts | 262° |
| 2026-04-27 01:14 | 28.64586 | -106.79143 | 8858 ft | 132 kts | 262° |
| 2026-04-27 01:14 | 28.64468 | -106.80156 | 8735 ft | 130 kts | 263° |
| 2026-04-27 01:15 | 28.64349 | -106.81170 | 8608 ft | 126 kts | 262° |
| 2026-04-27 01:15 | 28.64240 | -106.82102 | 8475 ft | 112 kts | 263° |
| 2026-04-27 01:15 | 28.64139 | -106.82965 | 8339 ft | 108 kts | 262° |
| 2026-04-27 01:15 | 28.64040 | -106.83795 | 8198 ft | 102 kts | 263° |
| 2026-04-27 01:16 | 28.63943 | -106.84591 | 8075 ft | 103 kts | 263° |
| 2026-04-27 01:16 | 28.63842 | -106.85394 | 7937 ft | 100 kts | 262° |
| 2026-04-27 01:16 | 28.63796 | -106.86184 | 7717 ft | 104 kts | 267° |
| 2026-04-27 01:16 | 28.63749 | -106.87021 | 7528 ft | 106 kts | 267° |
| 2026-04-27 01:17 | 28.63727 | -106.87830 | 7387 ft | 102 kts | 269° |
| 2026-04-27 01:17 | 28.63747 | -106.88642 | 7196 ft | 102 kts | 274° |
| 2026-04-27 01:17 | 28.63858 | -106.89408 | 7108 ft | 96 kts | 298° |
| 2026-04-27 01:17 | 28.64434 | -106.89769 | 6929 ft | 103 kts | 357° |
| 2026-04-27 01:18 | 28.65096 | -106.89733 | 6967 ft | 84 kts | 0° |
| 2026-04-27 01:18 | 28.65603 | -106.89696 | 7034 ft | 66 kts | 359° |
| 2026-04-27 01:18 | 28.66045 | -106.89659 | 6985 ft | 62 kts | 0° |
| 2026-04-27 01:18 | 28.66450 | -106.89620 | 7039 ft | 52 kts | 1° |
| 2026-04-27 01:19 | 28.66871 | -106.89584 | 7042 ft | 60 kts | 0° |
| 2026-04-27 01:19 | 28.67287 | -106.89553 | 7121 ft | 61 kts | 359° |
| 2026-04-27 01:19 | 28.67710 | -106.89404 | 7156 ft | 70 kts | 40° |
| 2026-04-27 01:19 | 28.67830 | -106.88842 | 7205 ft | 77 kts | 95° |
| 2026-04-27 01:20 | 28.67781 | -106.88154 | 7265 ft | 90 kts | 95° |
| 2026-04-27 01:20 | 28.67741 | -106.87458 | 7386 ft | 95 kts | 95° |
| 2026-04-27 01:20 | 28.67656 | -106.86667 | 7421 ft | 107 kts | 98° |
| 2026-04-27 01:20 | 28.67549 | -106.85781 | 7443 ft | 117 kts | 99° |
| 2026-04-27 01:21 | 28.67234 | -106.84961 | 7473 ft | 116 kts | 144° |
| 2026-04-27 01:21 | 28.66476 | -106.84786 | 7332 ft | 112 kts | 188° |
| 2026-04-27 01:21 | 28.65809 | -106.85040 | 7239 ft | 98 kts | 231° |
| 2026-04-27 01:21 | 28.65606 | -106.85755 | 7044 ft | 96 kts | 265° |
| 2026-04-27 01:22 | 28.65576 | -106.86507 | 6900 ft | 95 kts | 268° |
| 2026-04-27 01:22 | 28.65575 | -106.87246 | 6790 ft | 92 kts | 270° |
| 2026-04-27 01:22 | 28.65583 | -106.87947 | 6717 ft | 87 kts | 271° |
| 2026-04-27 01:22 | 28.65587 | -106.88624 | 6651 ft | 83 kts | 270° |
| 2026-04-27 01:23 | 28.65585 | -106.89281 | 6575 ft | 82 kts | 270° |
| 2026-04-27 01:23 | 28.65585 | -106.89879 | 6529 ft | 64 kts | 270° |
| 2026-04-27 01:23 | 28.65585 | -106.90314 | 6525 ft | 49 kts | 270° |
| 2026-04-27 01:23 | 28.65550 | -106.90564 | 6530 ft | 18 kts | 226° |
| 2026-04-27 01:24 | 28.65518 | -106.90639 | 6531 ft | 0 kts | 271° |